sensor_id;sensor_type;location;lat;lon;timestamp;P1;durP1;ratioP1;P2;durP2;ratioP2
58468;SDS011;44257;44.804;10.220;2022-10-18T00:01:52;9.07;;;5.72;;
58468;SDS011;44257;44.804;10.220;2022-10-18T00:04:17;11.02;;;5.80;;
58468;SDS011;44257;44.804;10.220;2022-10-18T00:06:43;13.13;;;7.13;;
58468;SDS011;44257;44.804;10.220;2022-10-18T00:09:09;11.20;;;5.75;;
58468;SDS011;44257;44.804;10.220;2022-10-18T00:11:36;9.18;;;5.63;;
58468;SDS011;44257;44.804;10.220;2022-10-18T00:14:02;11.07;;;6.70;;
58468;SDS011;44257;44.804;10.220;2022-10-18T00:16:29;10.05;;;5.18;;
58468;SDS011;44257;44.804;10.220;2022-10-18T00:18:54;20.45;;;6.85;;
58468;SDS011;44257;44.804;10.220;2022-10-18T00:21:21;11.20;;;7.90;;
58468;SDS011;44257;44.804;10.220;2022-10-18T00:23:48;11.80;;;5.97;;
58468;SDS011;44257;44.804;10.220;2022-10-18T00:26:17;9.82;;;6.30;;
58468;SDS011;44257;44.804;10.220;2022-10-18T00:28:45;11.85;;;5.18;;
58468;SDS011;44257;44.804;10.220;2022-10-18T00:31:18;11.18;;;5.60;;
58468;SDS011;44257;44.804;10.220;2022-10-18T00:33:45;8.90;;;5.07;;
58468;SDS011;44257;44.804;10.220;2022-10-18T00:36:14;9.90;;;6.82;;
58468;SDS011;44257;44.804;10.220;2022-10-18T00:38:40;10.35;;;6.78;;
58468;SDS011;44257;44.804;10.220;2022-10-18T00:41:07;11.93;;;6.68;;
58468;SDS011;44257;44.804;10.220;2022-10-18T00:43:51;10.25;;;7.30;;
58468;SDS011;44257;44.804;10.220;2022-10-18T00:46:19;10.88;;;6.88;;
58468;SDS011;44257;44.804;10.220;2022-10-18T00:48:45;9.43;;;6.03;;
58468;SDS011;44257;44.804;10.220;2022-10-18T00:51:11;10.65;;;4.72;;
58468;SDS011;44257;44.804;10.220;2022-10-18T00:53:37;15.90;;;7.47;;
58468;SDS011;44257;44.804;10.220;2022-10-18T00:56:04;9.88;;;5.68;;
58468;SDS011;44257;44.804;10.220;2022-10-18T00:58:30;9.93;;;5.65;;
58468;SDS011;44257;44.804;10.220;2022-10-18T01:00:56;9.85;;;6.25;;
58468;SDS011;44257;44.804;10.220;2022-10-18T01:03:22;9.30;;;6.80;;
58468;SDS011;44257;44.804;10.220;2022-10-18T01:05:48;14.70;;;6.75;;
58468;SDS011;44257;44.804;10.220;2022-10-18T01:08:27;8.25;;;5.10;;
58468;SDS011;44257;44.804;10.220;2022-10-18T01:16:59;10.43;;;6.38;;
58468;SDS011;44257;44.804;10.220;2022-10-18T01:22:25;13.27;;;6.63;;
58468;SDS011;44257;44.804;10.220;2022-10-18T01:27:54;10.80;;;6.22;;
58468;SDS011;44257;44.804;10.220;2022-10-18T01:36:28;10.50;;;5.68;;
58468;SDS011;44257;44.804;10.220;2022-10-18T01:38:58;13.43;;;5.00;;
58468;SDS011;44257;44.804;10.220;2022-10-18T01:41:25;15.32;;;6.80;;
58468;SDS011;44257;44.804;10.220;2022-10-18T01:43:55;13.27;;;7.38;;
58468;SDS011;44257;44.804;10.220;2022-10-18T01:46:24;11.82;;;6.30;;
58468;SDS011;44257;44.804;10.220;2022-10-18T01:48:51;7.97;;;5.55;;
58468;SDS011;44257;44.804;10.220;2022-10-18T01:51:28;9.02;;;5.68;;
58468;SDS011;44257;44.804;10.220;2022-10-18T01:53:55;8.80;;;5.55;;
58468;SDS011;44257;44.804;10.220;2022-10-18T02:02:49;9.07;;;4.53;;
58468;SDS011;44257;44.804;10.220;2022-10-18T02:12:58;9.55;;;5.30;;
58468;SDS011;44257;44.804;10.220;2022-10-18T02:15:35;11.80;;;4.75;;
58468;SDS011;44257;44.804;10.220;2022-10-18T02:18:06;12.38;;;5.80;;
58468;SDS011;44257;44.804;10.220;2022-10-18T02:20:37;11.88;;;6.63;;
58468;SDS011;44257;44.804;10.220;2022-10-18T02:23:05;9.68;;;6.10;;
58468;SDS011;44257;44.804;10.220;2022-10-18T02:25:33;10.60;;;6.18;;
58468;SDS011;44257;44.804;10.220;2022-10-18T02:28:00;9.27;;;5.30;;
58468;SDS011;44257;44.804;10.220;2022-10-18T02:30:32;12.00;;;6.63;;
58468;SDS011;44257;44.804;10.220;2022-10-18T02:35:58;9.93;;;5.55;;
58468;SDS011;44257;44.804;10.220;2022-10-18T02:38:30;13.02;;;5.53;;
58468;SDS011;44257;44.804;10.220;2022-10-18T02:40:57;10.98;;;6.57;;
58468;SDS011;44257;44.804;10.220;2022-10-18T02:43:23;10.52;;;4.47;;
58468;SDS011;44257;44.804;10.220;2022-10-18T02:45:49;10.25;;;5.45;;
58468;SDS011;44257;44.804;10.220;2022-10-18T02:48:15;15.35;;;6.78;;
58468;SDS011;44257;44.804;10.220;2022-10-18T02:50:41;13.40;;;6.57;;
58468;SDS011;44257;44.804;10.220;2022-10-18T02:53:07;11.95;;;5.20;;
58468;SDS011;44257;44.804;10.220;2022-10-18T02:55:33;9.10;;;5.38;;
58468;SDS011;44257;44.804;10.220;2022-10-18T02:57:58;8.25;;;6.35;;
58468;SDS011;44257;44.804;10.220;2022-10-18T03:00:24;9.98;;;5.78;;
58468;SDS011;44257;44.804;10.220;2022-10-18T03:02:50;12.45;;;5.18;;
58468;SDS011;44257;44.804;10.220;2022-10-18T03:05:17;9.05;;;6.15;;
58468;SDS011;44257;44.804;10.220;2022-10-18T03:07:43;11.55;;;4.60;;
58468;SDS011;44257;44.804;10.220;2022-10-18T03:10:09;8.15;;;3.97;;
58468;SDS011;44257;44.804;10.220;2022-10-18T03:12:35;8.75;;;5.97;;
58468;SDS011;44257;44.804;10.220;2022-10-18T03:15:01;14.43;;;5.95;;
58468;SDS011;44257;44.804;10.220;2022-10-18T03:17:27;11.98;;;6.78;;
58468;SDS011;44257;44.804;10.220;2022-10-18T03:19:53;13.65;;;6.93;;
58468;SDS011;44257;44.804;10.220;2022-10-18T03:22:18;9.18;;;4.80;;
58468;SDS011;44257;44.804;10.220;2022-10-18T03:24:44;8.18;;;5.03;;
58468;SDS011;44257;44.804;10.220;2022-10-18T03:27:10;6.90;;;4.30;;
58468;SDS011;44257;44.804;10.220;2022-10-18T03:29:36;7.45;;;4.63;;
58468;SDS011;44257;44.804;10.220;2022-10-18T03:32:02;8.95;;;5.45;;
58468;SDS011;44257;44.804;10.220;2022-10-18T03:34:28;8.98;;;4.88;;
58468;SDS011;44257;44.804;10.220;2022-10-18T03:36:54;9.10;;;5.55;;
58468;SDS011;44257;44.804;10.220;2022-10-18T03:39:21;8.38;;;4.57;;
58468;SDS011;44257;44.804;10.220;2022-10-18T03:41:47;12.18;;;5.80;;
58468;SDS011;44257;44.804;10.220;2022-10-18T03:44:13;11.85;;;7.72;;
58468;SDS011;44257;44.804;10.220;2022-10-18T03:46:39;10.13;;;4.88;;
58468;SDS011;44257;44.804;10.220;2022-10-18T03:49:05;13.90;;;6.25;;
58468;SDS011;44257;44.804;10.220;2022-10-18T03:51:31;7.13;;;5.00;;
58468;SDS011;44257;44.804;10.220;2022-10-18T03:53:57;8.85;;;5.65;;
58468;SDS011;44257;44.804;10.220;2022-10-18T03:56:22;7.85;;;4.78;;
58468;SDS011;44257;44.804;10.220;2022-10-18T03:58:48;9.48;;;5.10;;
58468;SDS011;44257;44.804;10.220;2022-10-18T04:01:14;11.55;;;5.90;;
58468;SDS011;44257;44.804;10.220;2022-10-18T04:03:40;14.32;;;6.32;;
58468;SDS011;44257;44.804;10.220;2022-10-18T04:06:06;10.10;;;5.68;;
58468;SDS011;44257;44.804;10.220;2022-10-18T04:08:34;10.98;;;6.68;;
58468;SDS011;44257;44.804;10.220;2022-10-18T04:11:03;11.20;;;5.93;;
58468;SDS011;44257;44.804;10.220;2022-10-18T04:15:59;11.43;;;5.70;;
58468;SDS011;44257;44.804;10.220;2022-10-18T04:18:25;10.27;;;5.30;;
58468;SDS011;44257;44.804;10.220;2022-10-18T04:20:50;8.02;;;4.60;;
58468;SDS011;44257;44.804;10.220;2022-10-18T04:23:16;6.65;;;4.03;;
58468;SDS011;44257;44.804;10.220;2022-10-18T04:25:42;10.80;;;6.10;;
58468;SDS011;44257;44.804;10.220;2022-10-18T04:28:08;9.32;;;5.72;;
58468;SDS011;44257;44.804;10.220;2022-10-18T04:30:34;12.23;;;4.47;;
58468;SDS011;44257;44.804;10.220;2022-10-18T04:33:00;8.73;;;5.65;;
58468;SDS011;44257;44.804;10.220;2022-10-18T04:35:25;8.88;;;4.53;;
58468;SDS011;44257;44.804;10.220;2022-10-18T04:37:52;9.73;;;4.95;;
58468;SDS011;44257;44.804;10.220;2022-10-18T04:40:19;12.13;;;6.13;;
58468;SDS011;44257;44.804;10.220;2022-10-18T04:42:45;7.65;;;4.78;;
58468;SDS011;44257;44.804;10.220;2022-10-18T04:45:11;5.97;;;3.92;;
58468;SDS011;44257;44.804;10.220;2022-10-18T04:47:37;6.68;;;5.53;;
58468;SDS011;44257;44.804;10.220;2022-10-18T04:50:03;9.07;;;4.80;;
58468;SDS011;44257;44.804;10.220;2022-10-18T04:52:30;14.00;;;6.22;;
58468;SDS011;44257;44.804;10.220;2022-10-18T04:54:55;10.65;;;5.15;;
58468;SDS011;44257;44.804;10.220;2022-10-18T04:57:21;8.82;;;4.80;;
58468;SDS011;44257;44.804;10.220;2022-10-18T04:59:47;7.95;;;4.93;;
58468;SDS011;44257;44.804;10.220;2022-10-18T05:02:13;13.57;;;5.72;;
58468;SDS011;44257;44.804;10.220;2022-10-18T05:04:39;8.77;;;4.78;;
58468;SDS011;44257;44.804;10.220;2022-10-18T05:07:04;14.15;;;6.45;;
58468;SDS011;44257;44.804;10.220;2022-10-18T05:09:31;10.15;;;6.00;;
58468;SDS011;44257;44.804;10.220;2022-10-18T05:11:57;12.73;;;6.35;;
58468;SDS011;44257;44.804;10.220;2022-10-18T05:14:22;8.73;;;5.85;;
58468;SDS011;44257;44.804;10.220;2022-10-18T05:16:48;9.27;;;4.90;;
58468;SDS011;44257;44.804;10.220;2022-10-18T05:19:14;10.35;;;6.47;;
58468;SDS011;44257;44.804;10.220;2022-10-18T05:21:40;7.32;;;4.18;;
58468;SDS011;44257;44.804;10.220;2022-10-18T05:24:06;11.23;;;6.72;;
58468;SDS011;44257;44.804;10.220;2022-10-18T05:26:32;20.05;;;4.72;;
58468;SDS011;44257;44.804;10.220;2022-10-18T05:28:58;8.38;;;5.13;;
58468;SDS011;44257;44.804;10.220;2022-10-18T05:31:23;9.35;;;5.15;;
58468;SDS011;44257;44.804;10.220;2022-10-18T05:33:49;10.15;;;5.68;;
58468;SDS011;44257;44.804;10.220;2022-10-18T05:36:15;9.15;;;5.78;;
58468;SDS011;44257;44.804;10.220;2022-10-18T05:38:41;8.70;;;5.28;;
58468;SDS011;44257;44.804;10.220;2022-10-18T05:41:08;12.43;;;7.03;;
58468;SDS011;44257;44.804;10.220;2022-10-18T05:43:34;8.80;;;6.15;;
58468;SDS011;44257;44.804;10.220;2022-10-18T05:46:00;10.93;;;6.82;;
58468;SDS011;44257;44.804;10.220;2022-10-18T05:48:25;14.18;;;6.47;;
58468;SDS011;44257;44.804;10.220;2022-10-18T05:50:51;9.10;;;5.18;;
58468;SDS011;44257;44.804;10.220;2022-10-18T05:53:17;7.10;;;4.60;;
58468;SDS011;44257;44.804;10.220;2022-10-18T05:55:43;6.13;;;4.10;;
58468;SDS011;44257;44.804;10.220;2022-10-18T05:58:09;19.95;;;7.10;;
58468;SDS011;44257;44.804;10.220;2022-10-18T06:00:34;8.52;;;4.97;;
58468;SDS011;44257;44.804;10.220;2022-10-18T06:03:00;10.00;;;4.68;;
58468;SDS011;44257;44.804;10.220;2022-10-18T06:05:26;9.70;;;5.18;;
58468;SDS011;44257;44.804;10.220;2022-10-18T06:07:52;11.35;;;5.88;;
58468;SDS011;44257;44.804;10.220;2022-10-18T06:10:19;9.00;;;4.47;;
58468;SDS011;44257;44.804;10.220;2022-10-18T06:12:45;10.48;;;5.03;;
58468;SDS011;44257;44.804;10.220;2022-10-18T06:15:11;10.05;;;5.00;;
58468;SDS011;44257;44.804;10.220;2022-10-18T06:17:36;7.45;;;4.07;;
58468;SDS011;44257;44.804;10.220;2022-10-18T06:20:02;9.02;;;5.22;;
58468;SDS011;44257;44.804;10.220;2022-10-18T06:22:29;10.15;;;5.78;;
58468;SDS011;44257;44.804;10.220;2022-10-18T06:24:55;9.30;;;4.45;;
58468;SDS011;44257;44.804;10.220;2022-10-18T06:27:21;8.90;;;5.18;;
58468;SDS011;44257;44.804;10.220;2022-10-18T06:29:46;9.60;;;5.30;;
58468;SDS011;44257;44.804;10.220;2022-10-18T06:32:12;6.22;;;5.20;;
58468;SDS011;44257;44.804;10.220;2022-10-18T06:34:38;8.52;;;4.80;;
58468;SDS011;44257;44.804;10.220;2022-10-18T06:37:04;8.60;;;5.10;;
58468;SDS011;44257;44.804;10.220;2022-10-18T06:39:30;9.15;;;4.03;;
58468;SDS011;44257;44.804;10.220;2022-10-18T06:41:56;9.98;;;5.43;;
58468;SDS011;44257;44.804;10.220;2022-10-18T06:44:24;12.05;;;5.82;;
58468;SDS011;44257;44.804;10.220;2022-10-18T06:46:50;10.27;;;5.35;;
58468;SDS011;44257;44.804;10.220;2022-10-18T06:49:17;10.65;;;6.20;;
58468;SDS011;44257;44.804;10.220;2022-10-18T06:51:44;8.65;;;5.35;;
58468;SDS011;44257;44.804;10.220;2022-10-18T06:54:10;6.57;;;3.97;;
58468;SDS011;44257;44.804;10.220;2022-10-18T06:56:36;6.53;;;4.28;;
58468;SDS011;44257;44.804;10.220;2022-10-18T06:59:02;6.72;;;4.18;;
58468;SDS011;44257;44.804;10.220;2022-10-18T07:01:29;8.90;;;4.20;;
58468;SDS011;44257;44.804;10.220;2022-10-18T07:03:55;6.07;;;3.65;;
58468;SDS011;44257;44.804;10.220;2022-10-18T07:06:21;9.50;;;5.00;;
58468;SDS011;44257;44.804;10.220;2022-10-18T07:08:48;9.57;;;4.82;;
58468;SDS011;44257;44.804;10.220;2022-10-18T07:11:16;15.77;;;4.78;;
58468;SDS011;44257;44.804;10.220;2022-10-18T07:13:43;7.50;;;4.60;;
58468;SDS011;44257;44.804;10.220;2022-10-18T07:16:10;6.10;;;3.83;;
58468;SDS011;44257;44.804;10.220;2022-10-18T07:18:39;10.68;;;5.40;;
58468;SDS011;44257;44.804;10.220;2022-10-18T07:21:07;8.25;;;4.57;;
58468;SDS011;44257;44.804;10.220;2022-10-18T07:23:38;13.50;;;6.25;;
58468;SDS011;44257;44.804;10.220;2022-10-18T07:28:45;8.40;;;4.05;;
58468;SDS011;44257;44.804;10.220;2022-10-18T07:31:13;9.70;;;4.85;;
58468;SDS011;44257;44.804;10.220;2022-10-18T07:33:39;6.28;;;3.85;;
58468;SDS011;44257;44.804;10.220;2022-10-18T07:36:08;8.30;;;4.82;;
58468;SDS011;44257;44.804;10.220;2022-10-18T07:38:35;11.00;;;5.28;;
58468;SDS011;44257;44.804;10.220;2022-10-18T07:41:01;10.38;;;4.13;;
58468;SDS011;44257;44.804;10.220;2022-10-18T07:43:28;5.60;;;3.65;;
58468;SDS011;44257;44.804;10.220;2022-10-18T07:45:55;6.70;;;4.30;;
58468;SDS011;44257;44.804;10.220;2022-10-18T07:48:24;13.52;;;5.30;;
58468;SDS011;44257;44.804;10.220;2022-10-18T07:50:50;7.57;;;4.10;;
58468;SDS011;44257;44.804;10.220;2022-10-18T07:53:16;5.78;;;4.38;;
58468;SDS011;44257;44.804;10.220;2022-10-18T07:55:42;8.32;;;3.70;;
58468;SDS011;44257;44.804;10.220;2022-10-18T07:58:09;9.88;;;4.53;;
58468;SDS011;44257;44.804;10.220;2022-10-18T08:00:35;9.38;;;4.43;;
58468;SDS011;44257;44.804;10.220;2022-10-18T08:03:03;10.00;;;4.68;;
58468;SDS011;44257;44.804;10.220;2022-10-18T08:05:29;7.05;;;4.88;;
58468;SDS011;44257;44.804;10.220;2022-10-18T08:07:55;7.93;;;4.22;;
58468;SDS011;44257;44.804;10.220;2022-10-18T08:10:22;8.85;;;3.95;;
58468;SDS011;44257;44.804;10.220;2022-10-18T08:12:52;8.52;;;4.78;;
58468;SDS011;44257;44.804;10.220;2022-10-18T08:15:18;5.60;;;3.65;;
58468;SDS011;44257;44.804;10.220;2022-10-18T08:17:47;7.32;;;4.32;;
58468;SDS011;44257;44.804;10.220;2022-10-18T08:20:13;12.27;;;6.75;;
58468;SDS011;44257;44.804;10.220;2022-10-18T08:22:39;7.60;;;4.80;;
58468;SDS011;44257;44.804;10.220;2022-10-18T08:25:05;8.55;;;4.85;;
58468;SDS011;44257;44.804;10.220;2022-10-18T08:27:31;11.27;;;5.03;;
58468;SDS011;44257;44.804;10.220;2022-10-18T08:29:57;7.80;;;4.15;;
58468;SDS011;44257;44.804;10.220;2022-10-18T08:32:25;11.07;;;4.22;;
58468;SDS011;44257;44.804;10.220;2022-10-18T08:34:52;9.10;;;4.57;;
58468;SDS011;44257;44.804;10.220;2022-10-18T08:37:18;11.35;;;5.90;;
58468;SDS011;44257;44.804;10.220;2022-10-18T08:39:44;10.75;;;5.93;;
58468;SDS011;44257;44.804;10.220;2022-10-18T08:45:04;6.78;;;5.43;;
58468;SDS011;44257;44.804;10.220;2022-10-18T08:50:02;11.43;;;5.85;;
58468;SDS011;44257;44.804;10.220;2022-10-18T08:52:48;12.88;;;6.88;;
58468;SDS011;44257;44.804;10.220;2022-10-18T08:57:45;11.95;;;6.00;;
58468;SDS011;44257;44.804;10.220;2022-10-18T09:13:30;15.13;;;7.40;;
58468;SDS011;44257;44.804;10.220;2022-10-18T09:16:10;18.10;;;9.60;;
58468;SDS011;44257;44.804;10.220;2022-10-18T09:21:17;22.98;;;10.23;;
58468;SDS011;44257;44.804;10.220;2022-10-18T09:24:19;17.33;;;8.30;;
58468;SDS011;44257;44.804;10.220;2022-10-18T09:26:56;19.90;;;10.43;;
58468;SDS011;44257;44.804;10.220;2022-10-18T09:29:38;20.45;;;10.93;;
58468;SDS011;44257;44.804;10.220;2022-10-18T09:34:45;23.55;;;11.75;;
58468;SDS011;44257;44.804;10.220;2022-10-18T09:37:15;18.08;;;11.50;;
58468;SDS011;44257;44.804;10.220;2022-10-18T09:39:42;21.52;;;12.00;;
58468;SDS011;44257;44.804;10.220;2022-10-18T09:42:28;24.17;;;12.43;;
58468;SDS011;44257;44.804;10.220;2022-10-18T09:47:54;25.55;;;11.02;;
58468;SDS011;44257;44.804;10.220;2022-10-18T09:50:42;23.65;;;11.48;;
58468;SDS011;44257;44.804;10.220;2022-10-18T09:53:26;22.88;;;11.65;;
58468;SDS011;44257;44.804;10.220;2022-10-18T09:56:05;21.80;;;13.02;;
58468;SDS011;44257;44.804;10.220;2022-10-18T09:58:42;22.85;;;11.90;;
58468;SDS011;44257;44.804;10.220;2022-10-18T10:01:12;29.15;;;14.10;;
58468;SDS011;44257;44.804;10.220;2022-10-18T10:03:40;23.90;;;13.48;;
58468;SDS011;44257;44.804;10.220;2022-10-18T10:08:48;22.83;;;12.95;;
58468;SDS011;44257;44.804;10.220;2022-10-18T10:11:35;21.23;;;11.50;;
58468;SDS011;44257;44.804;10.220;2022-10-18T10:14:17;22.13;;;12.35;;
58468;SDS011;44257;44.804;10.220;2022-10-18T10:19:25;19.88;;;11.77;;
58468;SDS011;44257;44.804;10.220;2022-10-18T10:21:57;23.33;;;11.68;;
58468;SDS011;44257;44.804;10.220;2022-10-18T10:24:50;22.15;;;13.48;;
58468;SDS011;44257;44.804;10.220;2022-10-18T10:27:29;25.10;;;11.73;;
58468;SDS011;44257;44.804;10.220;2022-10-18T10:32:51;26.00;;;12.02;;
58468;SDS011;44257;44.804;10.220;2022-10-18T10:35:20;21.58;;;11.73;;
58468;SDS011;44257;44.804;10.220;2022-10-18T10:37:49;20.48;;;11.75;;
58468;SDS011;44257;44.804;10.220;2022-10-18T10:40:20;19.50;;;11.65;;
58468;SDS011;44257;44.804;10.220;2022-10-18T10:42:50;25.90;;;11.37;;
58468;SDS011;44257;44.804;10.220;2022-10-18T10:45:36;23.63;;;12.77;;
58468;SDS011;44257;44.804;10.220;2022-10-18T10:48:13;28.67;;;14.38;;
58468;SDS011;44257;44.804;10.220;2022-10-18T10:51:14;25.95;;;12.13;;
58468;SDS011;44257;44.804;10.220;2022-10-18T10:53:41;22.83;;;11.32;;
58468;SDS011;44257;44.804;10.220;2022-10-18T10:56:26;21.73;;;12.23;;
58468;SDS011;44257;44.804;10.220;2022-10-18T10:59:58;26.45;;;12.52;;
58468;SDS011;44257;44.804;10.220;2022-10-18T11:04:46;20.08;;;10.75;;
58468;SDS011;44257;44.804;10.220;2022-10-18T11:10:04;17.98;;;11.60;;
58468;SDS011;44257;44.804;10.220;2022-10-18T11:12:44;23.85;;;10.40;;
58468;SDS011;44257;44.804;10.220;2022-10-18T11:15:19;25.90;;;12.02;;
58468;SDS011;44257;44.804;10.220;2022-10-18T11:20:20;21.23;;;11.32;;
58468;SDS011;44257;44.804;10.220;2022-10-18T11:25:21;20.90;;;13.07;;
58468;SDS011;44257;44.804;10.220;2022-10-18T11:27:53;23.08;;;12.88;;
58468;SDS011;44257;44.804;10.220;2022-10-18T11:43:56;30.95;;;15.32;;
58468;SDS011;44257;44.804;10.220;2022-10-18T12:00:02;22.20;;;10.88;;
58468;SDS011;44257;44.804;10.220;2022-10-18T12:02:53;22.17;;;11.48;;
58468;SDS011;44257;44.804;10.220;2022-10-18T12:05:31;25.23;;;13.13;;
58468;SDS011;44257;44.804;10.220;2022-10-18T12:08:05;25.48;;;13.23;;
58468;SDS011;44257;44.804;10.220;2022-10-18T12:10:32;29.50;;;16.20;;
58468;SDS011;44257;44.804;10.220;2022-10-18T12:13:04;30.00;;;14.18;;
58468;SDS011;44257;44.804;10.220;2022-10-18T12:15:35;30.58;;;14.07;;
58468;SDS011;44257;44.804;10.220;2022-10-18T12:18:06;23.88;;;14.60;;
58468;SDS011;44257;44.804;10.220;2022-10-18T12:20:39;29.95;;;16.40;;
58468;SDS011;44257;44.804;10.220;2022-10-18T12:23:15;29.93;;;14.80;;
58468;SDS011;44257;44.804;10.220;2022-10-18T12:25:44;25.58;;;14.38;;
58468;SDS011;44257;44.804;10.220;2022-10-18T12:33:29;31.98;;;15.18;;
58468;SDS011;44257;44.804;10.220;2022-10-18T12:38:49;25.55;;;13.75;;
58468;SDS011;44257;44.804;10.220;2022-10-18T12:41:27;29.25;;;13.63;;
58468;SDS011;44257;44.804;10.220;2022-10-18T12:44:06;23.50;;;13.43;;
58468;SDS011;44257;44.804;10.220;2022-10-18T12:46:48;23.52;;;12.63;;
58468;SDS011;44257;44.804;10.220;2022-10-18T12:52:02;27.52;;;14.85;;
58468;SDS011;44257;44.804;10.220;2022-10-18T12:54:49;22.90;;;12.73;;
58468;SDS011;44257;44.804;10.220;2022-10-18T13:03:39;27.25;;;13.75;;
58468;SDS011;44257;44.804;10.220;2022-10-18T13:05:54;24.42;;;13.20;;
58468;SDS011;44257;44.804;10.220;2022-10-18T13:18:53;19.50;;;11.05;;
58468;SDS011;44257;44.804;10.220;2022-10-18T13:32:19;21.58;;;12.57;;
58468;SDS011;44257;44.804;10.220;2022-10-18T13:34:53;16.85;;;10.13;;
58468;SDS011;44257;44.804;10.220;2022-10-18T13:37:20;18.48;;;9.70;;
58468;SDS011;44257;44.804;10.220;2022-10-18T13:39:48;24.83;;;11.27;;
58468;SDS011;44257;44.804;10.220;2022-10-18T13:42:35;19.52;;;9.88;;
58468;SDS011;44257;44.804;10.220;2022-10-18T13:46:01;18.42;;;10.95;;
58468;SDS011;44257;44.804;10.220;2022-10-18T13:47:56;15.90;;;9.70;;
58468;SDS011;44257;44.804;10.220;2022-10-18T14:08:26;19.90;;;10.45;;
58468;SDS011;44257;44.804;10.220;2022-10-18T14:13:35;21.13;;;10.85;;
58468;SDS011;44257;44.804;10.220;2022-10-18T14:16:05;25.77;;;12.05;;
58468;SDS011;44257;44.804;10.220;2022-10-18T14:18:41;21.80;;;12.57;;
58468;SDS011;44257;44.804;10.220;2022-10-18T14:21:10;21.42;;;12.18;;
58468;SDS011;44257;44.804;10.220;2022-10-18T14:23:43;22.60;;;9.75;;
58468;SDS011;44257;44.804;10.220;2022-10-18T14:28:35;20.45;;;11.27;;
58468;SDS011;44257;44.804;10.220;2022-10-18T14:31:02;19.58;;;10.32;;
58468;SDS011;44257;44.804;10.220;2022-10-18T14:33:32;20.88;;;10.90;;
58468;SDS011;44257;44.804;10.220;2022-10-18T14:36:04;20.30;;;10.82;;
58468;SDS011;44257;44.804;10.220;2022-10-18T14:38:33;21.70;;;11.68;;
58468;SDS011;44257;44.804;10.220;2022-10-18T14:47:19;19.20;;;9.38;;
58468;SDS011;44257;44.804;10.220;2022-10-18T14:49:44;27.58;;;11.68;;
58468;SDS011;44257;44.804;10.220;2022-10-18T14:52:17;17.77;;;9.07;;
58468;SDS011;44257;44.804;10.220;2022-10-18T14:54:45;19.05;;;10.40;;
58468;SDS011;44257;44.804;10.220;2022-10-18T14:57:31;19.83;;;9.10;;
58468;SDS011;44257;44.804;10.220;2022-10-18T15:00:00;15.32;;;9.88;;
58468;SDS011;44257;44.804;10.220;2022-10-18T15:02:29;16.52;;;9.50;;
58468;SDS011;44257;44.804;10.220;2022-10-18T15:05:05;22.92;;;10.88;;
58468;SDS011;44257;44.804;10.220;2022-10-18T15:07:32;25.00;;;10.15;;
58468;SDS011;44257;44.804;10.220;2022-10-18T15:09:59;19.65;;;10.70;;
58468;SDS011;44257;44.804;10.220;2022-10-18T15:12:28;17.83;;;9.30;;
58468;SDS011;44257;44.804;10.220;2022-10-18T15:14:56;16.20;;;9.32;;
58468;SDS011;44257;44.804;10.220;2022-10-18T15:17:25;17.38;;;9.55;;
58468;SDS011;44257;44.804;10.220;2022-10-18T15:19:58;18.23;;;10.27;;
58468;SDS011;44257;44.804;10.220;2022-10-18T15:22:30;17.60;;;8.40;;
58468;SDS011;44257;44.804;10.220;2022-10-18T15:25:11;20.50;;;9.65;;
58468;SDS011;44257;44.804;10.220;2022-10-18T15:27:39;16.95;;;9.32;;
58468;SDS011;44257;44.804;10.220;2022-10-18T15:30:20;17.27;;;9.68;;
58468;SDS011;44257;44.804;10.220;2022-10-18T15:32:56;19.50;;;10.07;;
58468;SDS011;44257;44.804;10.220;2022-10-18T15:35:25;20.63;;;10.35;;
58468;SDS011;44257;44.804;10.220;2022-10-18T15:37:54;15.57;;;7.72;;
58468;SDS011;44257;44.804;10.220;2022-10-18T15:42:50;17.00;;;9.15;;
58468;SDS011;44257;44.804;10.220;2022-10-18T15:55:49;15.60;;;8.90;;
58468;SDS011;44257;44.804;10.220;2022-10-18T15:58:24;18.17;;;9.32;;
58468;SDS011;44257;44.804;10.220;2022-10-18T16:00:53;18.20;;;9.95;;
58468;SDS011;44257;44.804;10.220;2022-10-18T16:03:21;23.77;;;11.20;;
58468;SDS011;44257;44.804;10.220;2022-10-18T16:05:49;19.75;;;9.95;;
58468;SDS011;44257;44.804;10.220;2022-10-18T16:08:27;18.80;;;8.75;;
58468;SDS011;44257;44.804;10.220;2022-10-18T16:11:01;11.75;;;7.32;;
58468;SDS011;44257;44.804;10.220;2022-10-18T16:13:27;17.02;;;8.75;;
58468;SDS011;44257;44.804;10.220;2022-10-18T16:15:53;16.05;;;8.90;;
58468;SDS011;44257;44.804;10.220;2022-10-18T16:18:21;17.75;;;8.55;;
58468;SDS011;44257;44.804;10.220;2022-10-18T16:20:49;16.42;;;8.77;;
58468;SDS011;44257;44.804;10.220;2022-10-18T16:23:16;15.43;;;7.45;;
58468;SDS011;44257;44.804;10.220;2022-10-18T16:25:47;19.55;;;8.88;;
58468;SDS011;44257;44.804;10.220;2022-10-18T16:28:23;20.23;;;9.07;;
58468;SDS011;44257;44.804;10.220;2022-10-18T16:30:54;16.23;;;9.35;;
58468;SDS011;44257;44.804;10.220;2022-10-18T16:33:23;18.20;;;10.23;;
58468;SDS011;44257;44.804;10.220;2022-10-18T16:35:50;19.77;;;10.88;;
58468;SDS011;44257;44.804;10.220;2022-10-18T16:38:27;16.88;;;9.32;;
58468;SDS011;44257;44.804;10.220;2022-10-18T16:40:54;18.92;;;9.05;;
58468;SDS011;44257;44.804;10.220;2022-10-18T16:43:20;14.88;;;8.68;;
58468;SDS011;44257;44.804;10.220;2022-10-18T16:45:46;14.35;;;7.40;;
58468;SDS011;44257;44.804;10.220;2022-10-18T16:48:14;11.60;;;7.53;;
58468;SDS011;44257;44.804;10.220;2022-10-18T16:50:42;15.85;;;7.65;;
58468;SDS011;44257;44.804;10.220;2022-10-18T16:53:08;22.58;;;8.57;;
58468;SDS011;44257;44.804;10.220;2022-10-18T16:55:35;18.48;;;11.07;;
58468;SDS011;44257;44.804;10.220;2022-10-18T16:58:02;15.90;;;8.55;;
58468;SDS011;44257;44.804;10.220;2022-10-18T17:00:28;18.70;;;9.13;;
58468;SDS011;44257;44.804;10.220;2022-10-18T17:02:54;16.50;;;10.93;;
58468;SDS011;44257;44.804;10.220;2022-10-18T17:05:20;19.88;;;8.18;;
58468;SDS011;44257;44.804;10.220;2022-10-18T17:07:47;13.75;;;8.32;;
58468;SDS011;44257;44.804;10.220;2022-10-18T17:10:17;15.40;;;8.75;;
58468;SDS011;44257;44.804;10.220;2022-10-18T17:12:45;16.45;;;8.27;;
58468;SDS011;44257;44.804;10.220;2022-10-18T17:15:11;16.60;;;9.30;;
58468;SDS011;44257;44.804;10.220;2022-10-18T17:17:37;18.83;;;9.23;;
58468;SDS011;44257;44.804;10.220;2022-10-18T17:20:04;16.30;;;9.38;;
58468;SDS011;44257;44.804;10.220;2022-10-18T17:22:32;16.45;;;9.38;;
58468;SDS011;44257;44.804;10.220;2022-10-18T17:24:58;18.13;;;9.88;;
58468;SDS011;44257;44.804;10.220;2022-10-18T17:27:24;17.90;;;9.23;;
58468;SDS011;44257;44.804;10.220;2022-10-18T17:29:50;13.88;;;8.70;;
58468;SDS011;44257;44.804;10.220;2022-10-18T17:32:16;20.88;;;9.57;;
58468;SDS011;44257;44.804;10.220;2022-10-18T17:34:42;19.50;;;9.73;;
58468;SDS011;44257;44.804;10.220;2022-10-18T17:37:07;14.40;;;8.95;;
58468;SDS011;44257;44.804;10.220;2022-10-18T17:39:34;14.27;;;8.35;;
58468;SDS011;44257;44.804;10.220;2022-10-18T17:42:00;17.35;;;7.70;;
58468;SDS011;44257;44.804;10.220;2022-10-18T17:44:26;19.77;;;8.63;;
58468;SDS011;44257;44.804;10.220;2022-10-18T17:46:51;19.42;;;9.40;;
58468;SDS011;44257;44.804;10.220;2022-10-18T17:49:18;15.88;;;8.18;;
58468;SDS011;44257;44.804;10.220;2022-10-18T17:51:45;18.70;;;8.35;;